Time;durP1;ratioP1;P1;durP2;ratioP2;P2;SDS_P1;SDS_P2;PMS_P1;PMS_P2;Temp;Humidity;BMP_temperature;BMP_pressure;BME280_temperature;BME280_humidity;BME280_pressure;Samples;Min_cycle;Max_cycle;Signal;HPM_P1;HPM_P2
2021/10/04 00:01:41;;;;;;;2.55;1.17;;;12.30;99.90;;;;;;5064813;28;20024;-43
2021/10/04 00:04:10;;;;;;;2.70;1.13;;;12.30;99.90;;;;;;5072698;28;20024;-43
2021/10/04 00:06:38;;;;;;;3.05;1.33;;;12.30;99.90;;;;;;5059660;28;20024;-42
2021/10/04 00:09:04;;;;;;;2.05;1.17;;;12.20;99.90;;;;;;5053305;28;20017;-42
2021/10/04 00:11:33;;;;;;;2.75;1.42;;;12.20;99.90;;;;;;5062589;28;20020;-43
2021/10/04 00:14:01;;;;;;;3.38;1.63;;;12.20;99.90;;;;;;5054655;28;20028;-40
2021/10/04 00:16:30;;;;;;;2.05;1.05;;;12.20;99.90;;;;;;5060129;28;20041;-42
2021/10/04 00:18:55;;;;;;;1.27;1.00;;;12.20;99.90;;;;;;5057029;28;20032;-42
2021/10/04 00:21:21;;;;;;;1.65;0.98;;;12.10;99.90;;;;;;5057914;28;20013;-43
2021/10/04 00:23:50;;;;;;;2.05;0.95;;;12.10;99.90;;;;;;5061314;28;20429;-44
2021/10/04 00:26:15;;;;;;;3.33;1.30;;;12.10;99.90;;;;;;5067985;28;20349;-43
2021/10/04 00:28:41;;;;;;;3.03;1.20;;;12.10;99.90;;;;;;5063231;28;20070;-42
2021/10/04 00:31:07;;;;;;;2.38;1.42;;;12.10;99.90;;;;;;5071283;28;20020;-43
2021/10/04 00:33:32;;;;;;;1.17;1.08;;;12.10;99.90;;;;;;5060392;28;20025;-42
2021/10/04 00:35:58;;;;;;;2.00;1.30;;;12.10;99.90;;;;;;5071558;28;20357;-42
2021/10/04 00:38:27;;;;;;;2.95;1.10;;;12.10;99.90;;;;;;5060549;28;20036;-44
2021/10/04 00:40:52;;;;;;;1.48;1.00;;;12.10;99.90;;;;;;5071542;28;20067;-43
2021/10/04 00:43:20;;;;;;;4.47;1.40;;;12.10;99.90;;;;;;5058689;28;20075;-42
2021/10/04 00:45:46;;;;;;;1.52;1.08;;;12.10;99.90;;;;;;5072473;28;20384;-43
2021/10/04 00:48:12;;;;;;;3.45;1.20;;;12.10;99.90;;;;;;5059437;28;20187;-43
2021/10/04 00:50:37;;;;;;;2.03;1.27;;;12.10;99.90;;;;;;5072104;28;20024;-43
2021/10/04 00:53:03;;;;;;;2.72;1.42;;;12.20;99.90;;;;;;5060691;28;20024;-43
2021/10/04 00:55:29;;;;;;;2.78;1.35;;;12.10;99.90;;;;;;5070222;28;20017;-42
2021/10/04 00:57:56;;;;;;;3.00;1.20;;;12.10;99.90;;;;;;5063083;28;20064;-42
2021/10/04 01:00:24;;;;;;;1.92;1.35;;;12.20;99.90;;;;;;5068307;28;20411;-42
2021/10/04 01:02:51;;;;;;;2.45;1.17;;;12.10;99.90;;;;;;5063959;28;20103;-44
2021/10/04 01:05:18;;;;;;;1.23;1.02;;;12.10;99.90;;;;;;5065455;28;20078;-43
2021/10/04 01:07:50;;;;;;;2.70;1.17;;;12.20;99.90;;;;;;5067138;28;20028;-43
2021/10/04 01:10:16;;;;;;;2.65;1.35;;;12.10;99.90;;;;;;5062740;28;20502;-42
2021/10/04 01:12:47;;;;;;;3.08;1.38;;;12.10;99.90;;;;;;5068180;28;20095;-41
2021/10/04 01:15:15;;;;;;;2.35;1.33;;;12.20;99.90;;;;;;5062807;28;20204;-43
2021/10/04 01:17:41;;;;;;;2.40;1.27;;;12.20;99.90;;;;;;5069595;28;20086;-43
2021/10/04 01:20:22;;;;;;;2.42;1.50;;;12.10;99.90;;;;;;5060641;28;20534;-43
2021/10/04 01:22:48;;;;;;;1.63;1.40;;;12.20;99.90;;;;;;5069657;28;20016;-43
2021/10/04 01:25:18;;;;;;;1.65;1.00;;;12.10;99.90;;;;;;5065369;28;20517;-44
2021/10/04 01:27:46;;;;;;;1.85;1.00;;;12.10;99.90;;;;;;5070278;28;20483;-42
2021/10/04 01:30:13;;;;;;;2.42;1.13;;;12.10;99.90;;;;;;5059461;28;20534;-42
2021/10/04 01:32:39;;;;;;;2.08;1.30;;;12.10;99.90;;;;;;5070664;28;20104;-43
2021/10/04 01:35:05;;;;;;;2.97;1.15;;;12.10;99.90;;;;;;5059748;28;20017;-42
2021/10/04 01:37:31;;;;;;;1.30;1.20;;;12.10;99.90;;;;;;5070069;28;20025;-40
2021/10/04 01:39:57;;;;;;;2.65;1.10;;;12.10;99.90;;;;;;5058749;28;20094;-41
2021/10/04 01:42:22;;;;;;;2.20;1.17;;;12.10;99.90;;;;;;5070442;28;20059;-43
2021/10/04 01:44:48;;;;;;;1.92;0.68;;;12.10;99.90;;;;;;5058932;28;20029;-41
2021/10/04 01:47:23;;;;;;;1.63;1.10;;;12.10;99.90;;;;;;5070446;28;20035;-43
2021/10/04 01:49:48;;;;;;;1.33;1.10;;;12.10;99.90;;;;;;5060922;28;20013;-43
2021/10/04 01:52:14;;;;;;;1.98;1.10;;;12.10;99.90;;;;;;5068030;28;20094;-43
2021/10/04 01:54:41;;;;;;;1.63;0.90;;;12.10;99.90;;;;;;5063287;28;20112;-42
2021/10/04 01:57:07;;;;;;;3.03;1.08;;;12.10;99.90;;;;;;5066208;28;20025;-42
2021/10/04 01:59:33;;;;;;;2.25;1.10;;;12.00;99.90;;;;;;5064382;28;20043;-42
2021/10/04 02:01:58;;;;;;;3.85;1.40;;;12.00;99.90;;;;;;5064141;28;20447;-43
2021/10/04 02:04:24;;;;;;;3.05;1.30;;;12.10;99.90;;;;;;5067558;28;20021;-43
2021/10/04 02:06:51;;;;;;;2.15;0.90;;;12.00;99.90;;;;;;5060405;28;20035;-43
2021/10/04 02:09:19;;;;;;;1.17;0.88;;;12.00;99.90;;;;;;5068888;28;20017;-42
2021/10/04 02:11:46;;;;;;;2.55;1.10;;;12.00;99.90;;;;;;5058269;28;20017;-43
2021/10/04 02:17:04;;;;;;;2.05;1.00;;;12.10;99.90;;;;;;5045142;28;20472;-42
2021/10/04 02:19:29;;;;;;;1.87;0.70;;;12.10;99.90;;;;;;5067967;28;20507;-43
2021/10/04 02:22:00;;;;;;;3.63;1.10;;;12.10;99.90;;;;;;5059490;28;20017;-42
2021/10/04 02:24:27;;;;;;;1.33;0.75;;;12.10;99.90;;;;;;5064508;28;20017;-44
2021/10/04 02:26:53;;;;;;;3.63;0.80;;;12.10;99.90;;;;;;5061579;28;20025;-41
2021/10/04 02:29:18;;;;;;;1.60;0.88;;;12.10;99.90;;;;;;5050049;28;20452;-42
2021/10/04 02:31:44;;;;;;;3.53;1.00;;;12.00;99.90;;;;;;5062552;28;20017;-42
2021/10/04 02:34:10;;;;;;;2.55;0.90;;;12.00;99.90;;;;;;5050603;28;20100;-43
2021/10/04 02:36:36;;;;;;;3.15;0.90;;;12.00;99.90;;;;;;5062090;28;20032;-42
2021/10/04 02:39:02;;;;;;;1.05;0.80;;;12.00;99.90;;;;;;5050614;28;20036;-43
2021/10/04 02:41:28;;;;;;;3.20;0.90;;;12.00;99.90;;;;;;5059263;28;20423;-43
2021/10/04 02:43:53;;;;;;;3.03;1.00;;;12.00;99.90;;;;;;5052677;28;20029;-43
2021/10/04 02:46:22;;;;;;;3.05;1.05;;;12.00;99.90;;;;;;5056530;28;20093;-42
2021/10/04 02:48:47;;;;;;;2.97;1.40;;;11.90;99.90;;;;;;5055442;28;20021;-43
2021/10/04 02:51:13;;;;;;;1.05;0.98;;;11.90;99.90;;;;;;5054880;28;20043;-43
2021/10/04 02:53:42;;;;;;;1.42;0.80;;;11.90;99.90;;;;;;5057584;28;20033;-42
2021/10/04 02:56:10;;;;;;;2.13;0.90;;;11.90;99.90;;;;;;5052368;28;20025;-43
2021/10/04 02:58:35;;;;;;;2.90;0.93;;;11.90;99.90;;;;;;5058918;28;20377;-42
2021/10/04 03:01:01;;;;;;;2.42;1.40;;;11.90;99.90;;;;;;5050668;28;20480;-42
2021/10/04 03:03:27;;;;;;;3.58;0.90;;;11.90;99.90;;;;;;5061298;28;20021;-42
2021/10/04 03:05:52;;;;;;;1.35;0.80;;;11.80;99.90;;;;;;5051487;28;20017;-42
2021/10/04 03:08:18;;;;;;;2.38;1.20;;;11.80;99.90;;;;;;5060249;28;20540;-44
2021/10/04 03:10:43;;;;;;;2.75;0.85;;;11.90;99.90;;;;;;5050800;28;20025;-42
2021/10/04 03:13:09;;;;;;;2.15;1.25;;;11.80;99.90;;;;;;5062224;28;20036;-43
2021/10/04 03:15:35;;;;;;;2.10;1.08;;;11.90;99.90;;;;;;5048631;28;20049;-43
2021/10/04 03:18:01;;;;;;;3.25;0.93;;;11.90;99.90;;;;;;5062759;28;20375;-43
2021/10/04 03:20:27;;;;;;;2.15;0.90;;;11.90;99.90;;;;;;5049339;28;20453;-44
2021/10/04 03:22:55;;;;;;;2.35;0.93;;;11.90;99.90;;;;;;5059172;28;20069;-42
2021/10/04 03:25:23;;;;;;;4.57;1.30;;;12.00;99.90;;;;;;5065076;28;20017;-42
2021/10/04 03:27:48;;;;;;;3.75;1.30;;;12.00;99.90;;;;;;5061549;28;20503;-41
2021/10/04 03:30:15;;;;;;;1.92;0.77;;;12.00;99.90;;;;;;5064179;28;20055;-42
2021/10/04 03:32:46;;;;;;;3.67;1.08;;;12.10;99.90;;;;;;5063644;28;20630;-43
2021/10/04 03:35:12;;;;;;;2.65;0.93;;;12.10;99.90;;;;;;5066604;28;20016;-43
2021/10/04 03:37:37;;;;;;;3.72;1.00;;;12.10;99.90;;;;;;5068683;28;20475;-43
2021/10/04 03:40:04;;;;;;;1.42;0.90;;;12.10;99.90;;;;;;5065014;28;20032;-42
2021/10/04 03:42:30;;;;;;;2.58;1.00;;;12.10;99.90;;;;;;5071664;28;20058;-43
2021/10/04 03:44:55;;;;;;;2.30;0.93;;;12.10;99.90;;;;;;5061290;28;20402;-43
2021/10/04 03:47:21;;;;;;;1.65;0.77;;;12.10;99.90;;;;;;5071857;28;20152;-43
2021/10/04 03:49:49;;;;;;;1.70;0.77;;;12.10;99.90;;;;;;5062145;28;20131;-43
2021/10/04 03:52:15;;;;;;;1.65;0.90;;;12.10;99.90;;;;;;5072361;28;20138;-42
2021/10/04 03:54:40;;;;;;;1.73;0.82;;;12.10;99.90;;;;;;5060520;28;20531;-43
2021/10/04 03:57:06;;;;;;;3.10;0.80;;;12.10;99.90;;;;;;5073538;28;20120;-42
2021/10/04 03:59:32;;;;;;;1.30;0.90;;;12.10;99.90;;;;;;5059431;28;20029;-42
2021/10/04 04:01:57;;;;;;;4.55;0.77;;;12.10;99.90;;;;;;5073907;28;20575;-42
2021/10/04 04:04:23;;;;;;;1.83;0.77;;;12.10;99.90;;;;;;5060902;28;20052;-43
2021/10/04 04:06:49;;;;;;;2.03;0.70;;;12.10;99.90;;;;;;5071805;28;20025;-43
2021/10/04 04:09:15;;;;;;;1.90;0.88;;;12.10;99.90;;;;;;5064119;28;20039;-42
2021/10/04 04:11:41;;;;;;;1.95;0.77;;;12.10;99.90;;;;;;5068203;28;20024;-42
2021/10/04 04:14:20;;;;;;;2.72;0.90;;;12.10;99.90;;;;;;5066760;28;20559;-43
2021/10/04 04:16:45;;;;;;;2.40;0.90;;;12.10;99.90;;;;;;5068855;28;20033;-43
2021/10/04 04:19:11;;;;;;;1.95;0.70;;;12.10;99.90;;;;;;5067548;28;20078;-43
2021/10/04 04:21:38;;;;;;;1.55;0.65;;;12.10;99.90;;;;;;5064504;28;20063;-40
2021/10/04 04:24:04;;;;;;;1.27;0.65;;;12.10;99.90;;;;;;5069342;28;20029;-43
2021/10/04 04:26:29;;;;;;;2.83;0.90;;;12.10;99.90;;;;;;5061934;28;20082;-40
2021/10/04 04:28:55;;;;;;;1.00;0.80;;;12.10;99.90;;;;;;5071469;28;20075;-42
2021/10/04 04:31:20;;;;;;;2.28;0.73;;;12.10;99.90;;;;;;5061048;28;20503;-43
2021/10/04 04:33:46;;;;;;;2.45;0.93;;;12.10;99.90;;;;;;5071166;28;20077;-42
2021/10/04 04:36:11;;;;;;;4.07;1.10;;;12.10;99.90;;;;;;5061170;28;20452;-43
2021/10/04 04:38:38;;;;;;;2.35;0.98;;;12.10;99.90;;;;;;5071874;28;20040;-42
2021/10/04 04:41:24;;;;;;;1.75;0.95;;;12.10;99.90;;;;;;5059385;28;20017;-43
2021/10/04 04:43:58;;;;;;;3.70;1.10;;;12.10;99.90;;;;;;5071899;28;20109;-43
2021/10/04 04:46:24;;;;;;;3.13;1.38;;;12.10;99.90;;;;;;5058836;28;20036;-43
2021/10/04 04:48:52;;;;;;;3.40;0.90;;;12.10;99.90;;;;;;5072288;28;20021;-42
2021/10/04 04:51:21;;;;;;;2.08;0.90;;;12.10;99.90;;;;;;5058540;28;20132;-42
2021/10/04 04:53:49;;;;;;;1.67;0.93;;;12.20;99.90;;;;;;5071547;28;20016;-42
2021/10/04 04:56:15;;;;;;;1.88;0.80;;;12.20;99.90;;;;;;5060181;28;20025;-41
2021/10/04 04:58:42;;;;;;;2.55;0.90;;;12.20;99.90;;;;;;5071323;28;20036;-44
2021/10/04 05:01:07;;;;;;;3.22;0.90;;;12.20;99.90;;;;;;5061558;28;20487;-39
2021/10/04 05:03:33;;;;;;;1.40;0.70;;;12.10;99.90;;;;;;5069110;28;20060;-43
2021/10/04 05:05:58;;;;;;;1.65;0.98;;;12.10;99.90;;;;;;5064717;28;20515;-42
2021/10/04 05:08:24;;;;;;;2.25;1.00;;;12.10;99.90;;;;;;5064249;28;20033;-43
2021/10/04 05:10:50;;;;;;;2.08;0.85;;;12.10;99.90;;;;;;5067404;28;20025;-42
2021/10/04 05:13:15;;;;;;;2.97;1.13;;;12.10;99.90;;;;;;5063691;28;20028;-43
2021/10/04 05:15:41;;;;;;;2.00;0.80;;;12.10;99.90;;;;;;5069111;28;20267;-42
2021/10/04 05:18:07;;;;;;;3.60;0.95;;;12.10;99.90;;;;;;5061006;28;20142;-41
2021/10/04 05:20:32;;;;;;;2.33;1.02;;;12.10;99.90;;;;;;5069543;28;20028;-43
2021/10/04 05:22:58;;;;;;;3.60;0.70;;;12.10;99.90;;;;;;5059874;28;20013;-42
2021/10/04 05:25:24;;;;;;;2.85;0.80;;;12.10;99.90;;;;;;5059731;28;20056;-40
2021/10/04 05:27:49;;;;;;;1.60;0.82;;;12.10;99.90;;;;;;5063712;28;20025;-43
2021/10/04 05:30:15;;;;;;;2.60;0.70;;;12.10;99.90;;;;;;5050850;28;20025;-43
2021/10/04 05:32:44;;;;;;;1.33;0.80;;;12.10;99.90;;;;;;5063790;28;20017;-41
2021/10/04 05:35:11;;;;;;;2.58;0.70;;;12.10;99.90;;;;;;5051114;28;20031;-43
2021/10/04 05:37:36;;;;;;;1.63;0.90;;;12.00;99.90;;;;;;5061540;28;20060;-43
2021/10/04 05:40:03;;;;;;;1.95;0.88;;;12.00;99.90;;;;;;5051366;28;20052;-43
2021/10/04 05:42:32;;;;;;;2.97;1.27;;;12.10;99.90;;;;;;5060169;28;20035;-43
2021/10/04 05:45:01;;;;;;;1.90;1.40;;;12.00;99.90;;;;;;5069853;28;20070;-44
2021/10/04 05:47:29;;;;;;;3.13;1.15;;;12.00;99.90;;;;;;5071653;28;20079;-43
2021/10/04 05:49:55;;;;;;;4.10;1.00;;;12.10;99.90;;;;;;5066215;28;20029;-42
2021/10/04 05:52:20;;;;;;;1.73;1.02;;;12.00;99.90;;;;;;5064915;28;20052;-43
2021/10/04 05:54:46;;;;;;;1.00;0.77;;;12.00;99.90;;;;;;5064302;28;20037;-43
2021/10/04 05:57:11;;;;;;;2.03;0.85;;;12.00;99.90;;;;;;5067103;28;20012;-42
2021/10/04 05:59:37;;;;;;;4.03;0.90;;;12.00;99.90;;;;;;5059471;28;20130;-41
2021/10/04 06:02:03;;;;;;;1.60;0.93;;;12.00;99.90;;;;;;5069105;28;20504;-40
2021/10/04 06:04:28;;;;;;;3.10;0.90;;;12.00;99.90;;;;;;5058535;28;20028;-41
2021/10/04 06:06:54;;;;;;;2.80;0.90;;;12.00;99.90;;;;;;5070057;28;20365;-42
2021/10/04 06:09:19;;;;;;;1.45;0.90;;;12.00;99.90;;;;;;5058603;28;20024;-43
2021/10/04 06:11:45;;;;;;;2.38;1.02;;;12.10;99.90;;;;;;5069969;28;20024;-41
2021/10/04 06:14:13;;;;;;;5.25;1.02;;;12.00;99.90;;;;;;5057149;28;20182;-42
2021/10/04 06:16:42;;;;;;;4.53;1.20;;;12.10;99.90;;;;;;5070476;28;20479;-40
2021/10/04 06:19:07;;;;;;;6.85;2.30;;;12.10;99.90;;;;;;5057286;28;20032;-42
2021/10/04 06:21:33;;;;;;;2.83;1.02;;;12.10;99.90;;;;;;5069197;28;20247;-43
2021/10/04 06:23:59;;;;;;;2.22;1.30;;;12.10;99.90;;;;;;5059245;28;20024;-42
2021/10/04 06:26:24;;;;;;;2.92;0.80;;;12.10;99.90;;;;;;5069064;28;20032;-42
2021/10/04 06:28:50;;;;;;;1.80;0.90;;;12.10;99.90;;;;;;5061250;28;20025;-42
2021/10/04 06:31:15;;;;;;;1.80;0.85;;;12.10;99.90;;;;;;5065978;28;20024;-42
2021/10/04 06:33:41;;;;;;;0.55;0.55;;;12.10;99.90;;;;;;5064262;28;20045;-42
2021/10/04 06:36:07;;;;;;;7.38;1.20;;;12.10;99.90;;;;;;5062582;28;20029;-39
2021/10/04 06:38:32;;;;;;;6.03;1.17;;;12.10;99.90;;;;;;5067591;28;20020;-44
2021/10/04 06:40:58;;;;;;;4.60;1.10;;;12.20;99.90;;;;;;5059967;28;20479;-47
2021/10/04 06:43:23;;;;;;;2.67;1.38;;;12.20;99.90;;;;;;5067986;28;20086;-45
2021/10/04 06:45:49;;;;;;;2.03;1.23;;;12.20;99.90;;;;;;5059046;28;20023;-44
2021/10/04 06:48:15;;;;;;;3.83;1.50;;;12.20;99.90;;;;;;5068428;28;20130;-42
2021/10/04 06:50:40;;;;;;;1.13;0.82;;;12.30;99.90;;;;;;5058636;28;20017;-42
2021/10/04 06:53:06;;;;;;;1.98;0.90;;;12.30;99.90;;;;;;5069981;28;20081;-42
2021/10/04 06:55:41;;;;;;;4.95;1.67;;;12.30;99.90;;;;;;5057106;28;20021;-43
2021/10/04 06:58:06;;;;;;;2.47;1.60;;;12.30;99.90;;;;;;5070049;28;20029;-42
2021/10/04 07:00:32;;;;;;;2.95;1.30;;;12.40;99.90;;;;;;5055290;28;20028;-43
2021/10/04 07:03:00;;;;;;;3.47;1.13;;;12.40;99.90;;;;;;5070691;28;20486;-42
2021/10/04 07:05:29;;;;;;;3.80;0.90;;;12.40;99.90;;;;;;5058538;28;20151;-42
2021/10/04 07:07:56;;;;;;;3.50;1.00;;;12.40;99.90;;;;;;5069080;28;20063;-44
2021/10/04 07:10:23;;;;;;;4.55;1.10;;;12.50;99.90;;;;;;5063588;28;20102;-43
2021/10/04 07:12:49;;;;;;;5.97;1.27;;;12.50;99.90;;;;;;5070662;28;20059;-41
2021/10/04 07:15:16;;;;;;;5.13;1.40;;;12.50;99.90;;;;;;5066133;28;20133;-41
2021/10/04 07:17:41;;;;;;;4.20;1.20;;;12.50;99.90;;;;;;5068505;28;20024;-41
2021/10/04 07:20:28;;;;;;;4.25;1.20;;;12.50;99.90;;;;;;5069853;28;20047;-40
2021/10/04 07:22:53;;;;;;;1.27;1.02;;;12.50;99.90;;;;;;5067334;28;20032;-40
2021/10/04 07:25:20;;;;;;;3.80;1.50;;;12.50;99.90;;;;;;5067650;28;20024;-42
2021/10/04 07:27:45;;;;;;;2.47;1.30;;;12.40;99.90;;;;;;5061864;28;20036;-39
2021/10/04 07:30:11;;;;;;;1.70;1.02;;;12.40;99.90;;;;;;5054745;28;20013;-41
2021/10/04 07:32:37;;;;;;;1.88;0.88;;;12.40;99.90;;;;;;5064615;28;20678;-40
2021/10/04 07:35:03;;;;;;;3.53;0.98;;;12.40;99.90;;;;;;5054882;28;20028;-42
2021/10/04 07:37:38;;;;;;;1.55;0.93;;;12.40;99.90;;;;;;5064207;28;20036;-41
2021/10/04 07:40:05;;;;;;;4.57;1.08;;;12.40;99.90;;;;;;5071743;28;20499;-41
2021/10/04 07:42:30;;;;;;;3.85;1.13;;;12.40;99.90;;;;;;5059974;28;20491;-42
2021/10/04 07:44:56;;;;;;;2.40;1.00;;;12.40;99.90;;;;;;5072388;28;20025;-42
2021/10/04 07:47:21;;;;;;;2.42;1.02;;;12.40;99.90;;;;;;5060507;28;20016;-40
2021/10/04 07:49:47;;;;;;;2.30;1.05;;;12.40;99.90;;;;;;5073076;28;20036;-39
2021/10/04 07:52:16;;;;;;;1.38;0.80;;;12.50;99.90;;;;;;5075714;28;20017;-38
2021/10/04 07:54:45;;;;;;;1.95;1.05;;;12.50;99.90;;;;;;5089806;28;20030;-42
2021/10/04 07:57:18;;;;;;;4.90;2.15;;;12.50;99.90;;;;;;5076904;28;20025;-40
2021/10/04 07:59:46;;;;;;;2.90;1.55;;;12.50;99.90;;;;;;5057792;28;20098;-42
2021/10/04 08:02:12;;;;;;;8.05;1.95;;;12.40;99.90;;;;;;5063096;28;20024;-41
2021/10/04 08:04:40;;;;;;;2.17;1.13;;;12.40;99.90;;;;;;5059379;28;20025;-45
2021/10/04 08:07:07;;;;;;;5.30;1.25;;;12.40;99.90;;;;;;5062239;28;20039;-43
2021/10/04 08:09:33;;;;;;;1.70;1.20;;;12.30;99.90;;;;;;5058149;28;20308;-42
2021/10/04 08:12:13;;;;;;;2.30;0.95;;;12.30;99.90;;;;;;5066585;28;20036;-42
2021/10/04 08:14:38;;;;;;;2.13;1.05;;;12.40;99.90;;;;;;5078279;28;20059;-42
2021/10/04 08:17:04;;;;;;;2.63;1.20;;;12.40;99.90;;;;;;5080035;28;20017;-41
2021/10/04 08:19:30;;;;;;;2.78;0.80;;;12.50;99.90;;;;;;5059841;28;20053;-41
2021/10/04 08:21:55;;;;;;;2.25;0.93;;;12.50;99.90;;;;;;5053942;28;20036;-40
2021/10/04 08:24:21;;;;;;;3.72;1.20;;;12.60;99.90;;;;;;5064187;28;20449;-43
2021/10/04 08:26:47;;;;;;;4.10;1.20;;;12.70;99.90;;;;;;5071438;28;20614;-41
2021/10/04 08:29:13;;;;;;;6.13;1.90;;;12.80;99.90;;;;;;5062682;28;20020;-43
2021/10/04 08:31:39;;;;;;;5.25;1.30;;;12.80;99.90;;;;;;5064053;28;20119;-43
2021/10/04 08:34:05;;;;;;;2.20;0.93;;;12.90;99.90;;;;;;5061043;28;20112;-43
2021/10/04 08:36:34;;;;;;;2.90;0.90;;;13.00;99.90;;;;;;5072474;28;20023;-43
2021/10/04 08:39:04;;;;;;;3.53;1.13;;;13.00;99.90;;;;;;5059668;28;20047;-43
2021/10/04 08:41:37;;;;;;;2.10;0.95;;;13.10;99.90;;;;;;5071461;28;20048;-43
2021/10/04 08:44:09;;;;;;;6.53;1.20;;;13.10;99.90;;;;;;5059878;28;20048;-43
2021/10/04 08:46:41;;;;;;;5.20;1.23;;;13.20;99.90;;;;;;5071593;28;20020;-42
2021/10/04 08:49:10;;;;;;;2.50;1.00;;;13.30;99.90;;;;;;5059431;28;20025;-44
2021/10/04 08:51:37;;;;;;;2.42;1.00;;;13.30;99.90;;;;;;5077469;28;20020;-44
2021/10/04 08:54:06;;;;;;;2.78;0.90;;;13.40;99.90;;;;;;5073201;28;20051;-42
2021/10/04 08:56:31;;;;;;;1.95;0.90;;;13.50;99.90;;;;;;5052807;28;20564;-43
2021/10/04 08:59:00;;;;;;;3.63;1.38;;;13.50;99.90;;;;;;5060229;28;20119;-43
2021/10/04 09:01:27;;;;;;;4.53;1.02;;;13.50;99.90;;;;;;5055148;28;20083;-44
2021/10/04 09:04:04;;;;;;;4.97;0.98;;;13.60;99.90;;;;;;5060610;28;20048;-44
2021/10/04 09:06:33;;;;;;;3.58;1.05;;;13.60;99.90;;;;;;5058969;28;20043;-42
2021/10/04 09:09:11;;;;;;;5.38;1.27;;;13.70;99.90;;;;;;5059674;28;20024;-44
2021/10/04 09:11:47;;;;;;;2.13;0.90;;;13.80;99.90;;;;;;5056194;28;20019;-43
2021/10/04 09:14:19;;;;;;;2.50;0.80;;;13.80;99.90;;;;;;5056859;28;20040;-43
2021/10/04 09:17:06;;;;;;;3.35;1.00;;;13.90;99.90;;;;;;5057885;28;20029;-43
2021/10/04 09:19:35;;;;;;;4.20;1.23;;;14.00;99.90;;;;;;5059094;28;20340;-43
2021/10/04 09:22:22;;;;;;;5.60;1.10;;;14.00;99.90;;;;;;5055678;28;20021;-42
2021/10/04 09:24:58;;;;;;;3.50;1.00;;;14.10;99.90;;;;;;5062833;28;20092;-41
2021/10/04 09:27:33;;;;;;;2.20;1.00;;;14.10;99.90;;;;;;5069862;28;20032;-43
2021/10/04 09:30:01;;;;;;;5.13;1.40;;;14.20;99.90;;;;;;5065571;28;20029;-42
2021/10/04 09:32:35;;;;;;;5.63;1.30;;;14.20;99.90;;;;;;5053504;28;20053;-42
2021/10/04 09:35:26;;;;;;;2.70;1.15;;;14.30;99.90;;;;;;5058484;28;20044;-43
2021/10/04 09:37:58;;;;;;;5.18;0.98;;;14.30;99.90;;;;;;5053264;28;20017;-42
2021/10/04 09:40:36;;;;;;;2.30;0.60;;;14.40;99.90;;;;;;5059705;28;20400;-44
2021/10/04 09:43:06;;;;;;;4.75;1.15;;;14.40;99.90;;;;;;5052085;28;20025;-43
2021/10/04 09:45:33;;;;;;;2.03;0.85;;;14.50;99.90;;;;;;5058753;28;20030;-43
2021/10/04 09:48:08;;;;;;;5.00;1.10;;;14.50;99.90;;;;;;5068073;28;20020;-44
2021/10/04 09:50:42;;;;;;;3.83;0.95;;;14.60;99.90;;;;;;5061028;28;20027;-43
2021/10/04 09:53:12;;;;;;;4.03;1.15;;;14.70;99.90;;;;;;5067483;28;20021;-44
2021/10/04 09:55:46;;;;;;;4.18;1.30;;;14.80;99.90;;;;;;5063839;28;20703;-43
2021/10/04 09:58:16;;;;;;;2.00;0.80;;;14.80;99.90;;;;;;5071812;28;20036;-44
2021/10/04 10:00:49;;;;;;;2.25;0.90;;;14.80;99.90;;;;;;5064587;28;20070;-44
2021/10/04 10:03:18;;;;;;;1.67;0.80;;;15.00;99.90;;;;;;5064298;28;20025;-44
2021/10/04 10:05:50;;;;;;;2.40;0.80;;;14.90;99.90;;;;;;5065874;28;20013;-42
2021/10/04 10:08:18;;;;;;;2.70;0.88;;;15.00;99.90;;;;;;5064571;28;20021;-44
2021/10/04 10:10:47;;;;;;;4.63;0.82;;;15.00;99.90;;;;;;5066625;28;20021;-42
2021/10/04 10:13:15;;;;;;;3.30;1.00;;;15.10;99.90;;;;;;5061947;28;20115;-43
2021/10/04 10:15:46;;;;;;;2.15;0.93;;;15.20;99.90;;;;;;5057355;28;20060;-43
2021/10/04 10:18:14;;;;;;;2.80;0.80;;;15.20;99.90;;;;;;5059687;28;20119;-41
2021/10/04 10:20:43;;;;;;;5.53;0.77;;;15.20;99.90;;;;;;5067938;28;20040;-42
2021/10/04 10:23:08;;;;;;;4.63;0.98;;;15.30;99.90;;;;;;5059508;28;20306;-42
2021/10/04 10:25:46;;;;;;;6.85;1.48;;;15.30;99.90;;;;;;5060696;28;20074;-41
2021/10/04 10:28:32;;;;;;;3.92;1.10;;;15.40;99.90;;;;;;5061384;28;20045;-41
2021/10/04 10:30:59;;;;;;;5.40;0.90;;;15.50;99.90;;;;;;5051574;28;20051;-43
2021/10/04 10:33:49;;;;;;;7.35;1.38;;;15.50;99.90;;;;;;5060369;28;20033;-43
2021/10/04 10:36:17;;;;;;;3.95;0.90;;;15.50;99.90;;;;;;5051636;28;20021;-43
2021/10/04 10:39:00;;;;;;;4.88;0.82;;;15.60;99.90;;;;;;5060377;28;20037;-46
2021/10/04 10:41:25;;;;;;;3.47;0.80;;;15.60;99.90;;;;;;5050861;28;20028;-42
2021/10/04 10:44:12;;;;;;;0.98;0.70;;;15.70;99.90;;;;;;5061258;28;20097;-41
2021/10/04 10:46:55;;;;;;;1.63;0.63;;;15.70;99.90;;;;;;5039460;28;20037;-43
2021/10/04 10:49:39;;;;;;;;;;;15.80;99.90;;;;;;5060594;28;20029;-43
2021/10/04 10:52:21;;;;;;;3.03;1.00;;;15.80;99.90;;;;;;5067279;28;19904;-43
2021/10/04 10:54:47;;;;;;;2.30;0.63;;;15.90;99.90;;;;;;5063476;28;20025;-42
2021/10/04 10:57:13;;;;;;;3.65;0.90;;;15.90;99.90;;;;;;5067388;28;20017;-44
2021/10/04 10:59:40;;;;;;;3.03;0.90;;;15.90;99.90;;;;;;5059286;28;20063;-44
2021/10/04 11:02:05;;;;;;;3.05;0.85;;;15.90;99.90;;;;;;5068561;28;20021;-44
2021/10/04 11:04:41;;;;;;;4.80;0.70;;;16.00;99.90;;;;;;5058374;28;20062;-44
2021/10/04 11:07:07;;;;;;;1.13;0.50;;;16.00;99.90;;;;;;5068296;28;20460;-44
2021/10/04 11:10:04;;;;;;;2.67;0.80;;;16.10;99.90;;;;;;5058074;28;20115;-44
2021/10/04 11:12:49;;;;;;;2.53;0.95;;;16.10;99.90;;;;;;5068078;28;20463;-43
2021/10/04 11:15:28;;;;;;;2.53;0.60;;;16.20;99.90;;;;;;5060144;28;20048;-43
2021/10/04 11:17:54;;;;;;;2.35;0.57;;;16.20;99.90;;;;;;5067037;28;20033;-44
2021/10/04 11:20:20;;;;;;;2.47;0.82;;;16.20;99.90;;;;;;5059471;28;20109;-44
2021/10/04 11:22:45;;;;;;;3.30;0.90;;;16.30;99.90;;;;;;5068097;28;20017;-44
2021/10/04 11:25:17;;;;;;;3.40;0.80;;;16.30;99.90;;;;;;5052249;28;20511;-44
2021/10/04 11:27:49;;;;;;;4.70;0.80;;;16.30;99.90;;;;;;5050782;28;20535;-44
2021/10/04 11:30:14;;;;;;;2.92;0.70;;;16.30;99.90;;;;;;5060443;28;20060;-45
2021/10/04 11:32:40;;;;;;;6.57;0.98;;;16.40;99.90;;;;;;5049734;28;20063;-43
2021/10/04 11:35:15;;;;;;;3.33;0.90;;;16.40;99.90;;;;;;5062273;28;20021;-44
2021/10/04 11:37:41;;;;;;;7.45;1.60;;;16.40;99.90;;;;;;5049103;28;20095;-42
2021/10/04 11:40:07;;;;;;;4.00;1.00;;;16.50;99.90;;;;;;5061495;28;20036;-42
2021/10/04 11:42:33;;;;;;;3.45;0.93;;;16.50;99.90;;;;;;5048480;28;20032;-43
2021/10/04 11:45:08;;;;;;;4.80;1.05;;;16.50;99.90;;;;;;5061867;28;20024;-43
2021/10/04 11:47:39;;;;;;;2.47;0.65;;;16.60;99.30;;;;;;5049518;28;20045;-44
2021/10/04 11:50:14;;;;;;;7.18;1.20;;;16.60;99.70;;;;;;5060888;28;20036;-44
2021/10/04 11:52:43;;;;;;;6.22;1.83;;;16.70;99.70;;;;;;5049220;28;20377;-43
2021/10/04 11:55:09;;;;;;;6.00;1.50;;;16.70;99.50;;;;;;5061445;28;20021;-41
2021/10/04 11:57:36;;;;;;;5.65;1.30;;;16.70;99.40;;;;;;5053160;28;20036;-43
2021/10/04 12:00:12;;;;;;;5.35;1.25;;;16.80;99.60;;;;;;5061371;28;20024;-42
2021/10/04 12:02:40;;;;;;;3.58;0.85;;;16.80;99.60;;;;;;5054947;28;20116;-44
2021/10/04 12:05:24;;;;;;;3.63;0.98;;;16.80;99.10;;;;;;5061030;28;20422;-44
2021/10/04 12:08:06;;;;;;;5.68;1.33;;;16.80;98.80;;;;;;5055018;28;20063;-42
2021/10/04 12:10:44;;;;;;;5.97;0.90;;;16.90;98.40;;;;;;5061556;28;20029;-44
2021/10/04 12:13:16;;;;;;;3.63;0.70;;;16.90;98.20;;;;;;5053969;28;20032;-44
2021/10/04 12:15:42;;;;;;;4.25;0.80;;;17.00;97.80;;;;;;5070561;28;20036;-46
2021/10/04 12:18:22;;;;;;;3.90;1.00;;;17.00;97.80;;;;;;5074473;28;20502;-47
2021/10/04 12:21:18;;;;;;;4.35;0.77;;;17.10;97.80;;;;;;5063223;28;20488;-45
2021/10/04 12:23:45;;;;;;;4.95;0.90;;;17.20;97.60;;;;;;5052737;28;20419;-46
2021/10/04 12:26:13;;;;;;;3.28;0.75;;;17.30;97.20;;;;;;5065229;28;20107;-45
2021/10/04 12:28:49;;;;;;;3.13;0.85;;;17.40;97.30;;;;;;5052559;28;20431;-44
2021/10/04 12:31:40;;;;;;;2.67;0.70;;;17.40;97.20;;;;;;5061069;28;20614;-41
2021/10/04 12:34:24;;;;;;;5.72;1.05;;;17.40;97.00;;;;;;5053420;28;20075;-44
2021/10/04 12:36:51;;;;;;;2.65;0.80;;;17.40;96.80;;;;;;5065205;28;20021;-46
2021/10/04 12:39:17;;;;;;;4.25;0.90;;;17.40;96.80;;;;;;5051733;28;20032;-46
2021/10/04 12:41:45;;;;;;;2.22;0.70;;;17.50;96.20;;;;;;5062974;28;20044;-45
2021/10/04 12:44:16;;;;;;;3.38;0.95;;;17.40;96.60;;;;;;5053106;28;20098;-45
2021/10/04 12:47:08;;;;;;;3.25;1.13;;;17.50;97.00;;;;;;5061314;28;20016;-44
2021/10/04 12:49:35;;;;;;;2.15;1.10;;;17.40;96.70;;;;;;5052021;28;20029;-46
2021/10/04 12:52:03;;;;;;;1.63;0.77;;;17.50;96.70;;;;;;5062628;28;20012;-45
2021/10/04 12:54:29;;;;;;;1.95;0.77;;;17.50;96.70;;;;;;5052787;28;20122;-45
2021/10/04 12:56:55;;;;;;;5.13;1.40;;;17.60;96.40;;;;;;5060995;28;20020;-46
2021/10/04 12:59:27;;;;;;;2.90;1.00;;;17.70;96.10;;;;;;5068021;28;20388;-44